Time;durP1;ratioP1;P1;durP2;ratioP2;P2;SDS_P1;SDS_P2;PMS_P1;PMS_P2;Temp;Humidity;BMP_temperature;BMP_pressure;BME280_temperature;BME280_humidity;BME280_pressure;Samples;Min_cycle;Max_cycle;Signal;HPM_P1;HPM_P2
2023/03/21 00:00:00;;;;;;;15.50;7.40;;;;;;;11.20;88.33;100161.46;682173;1263;138552;-88
2023/03/21 00:15:28;;;;;;;45.50;17.80;;;;;;;11.21;88.46;100157.56;682185;1263;139111;-87
2023/03/21 00:30:44;;;;;;;10.40;5.40;;;;;;;10.99;89.10;100156.77;682286;1266;138910;-87
2023/03/21 00:45:48;;;;;;;8.80;5.30;;;;;;;10.82;90.25;100151.79;682062;1262;139640;-86
2023/03/21 01:00:52;;;;;;;8.70;4.60;;;;;;;10.78;89.64;100154.62;682218;1266;139981;-86
2023/03/21 01:15:56;;;;;;;24.30;11.00;;;;;;;10.70;90.75;100153.98;682149;1260;138599;-88
2023/03/21 01:31:01;;;;;;;10.10;5.00;;;;;;;10.70;90.80;100146.58;682079;1263;139860;-88
2023/03/21 01:46:05;;;;;;;12.20;7.30;;;;;;;10.68;91.03;100148.72;682125;1266;139112;-88
2023/03/21 02:01:27;;;;;;;13.50;7.90;;;;;;;10.61;92.07;100151.27;682286;1266;139044;-87
2023/03/21 02:16:54;;;;;;;12.00;7.10;;;;;;;10.55;92.43;100146.39;682210;1265;138684;-87
2023/03/21 02:32:03;;;;;;;19.30;9.20;;;;;;;10.64;92.90;100150.14;682253;1266;138817;-87
2023/03/21 02:47:35;;;;;;;16.50;10.10;;;;;;;10.69;92.36;100149.88;682389;1273;138931;-88
2023/03/21 03:02:40;;;;;;;16.00;9.10;;;;;;;10.58;93.02;100152.04;682281;1266;139530;-88
2023/03/21 03:17:59;;;;;;;21.30;10.40;;;;;;;10.62;92.10;100156.80;682212;1265;138797;-88
2023/03/21 03:33:08;;;;;;;14.40;8.30;;;;;;;10.57;93.06;100158.42;682142;1266;139338;-87
2023/03/21 03:48:16;;;;;;;16.90;8.70;;;;;;;10.57;92.88;100152.13;682203;1266;167013;-86
2023/03/21 04:03:20;;;;;;;18.90;10.40;;;;;;;10.55;92.89;100156.90;682185;1266;139573;-88
2023/03/21 04:18:25;;;;;;;17.90;11.50;;;;;;;10.52;93.58;100166.23;682344;1266;139175;-86
2023/03/21 04:33:29;;;;;;;14.80;7.80;;;;;;;10.43;93.93;100161.14;682198;1261;140023;-87
2023/03/21 04:48:32;;;;;;;19.30;10.00;;;;;;;10.42;94.58;100166.44;682135;1267;138754;-86
2023/03/21 05:03:39;;;;;;;20.20;10.30;;;;;;;10.59;93.38;100172.46;682216;1264;139980;-86
2023/03/21 05:18:42;;;;;;;25.00;13.20;;;;;;;10.57;94.33;100176.48;682298;1264;138879;-86
2023/03/21 05:33:50;;;;;;;26.20;14.30;;;;;;;10.63;94.87;100190.61;681993;1264;140057;-85
2023/03/21 05:48:54;;;;;;;21.00;12.10;;;;;;;10.66;94.98;100198.77;682340;1264;138997;-87
2023/03/21 06:03:58;;;;;;;33.00;16.80;;;;;;;10.67;95.53;100203.21;682155;1261;138996;-85
2023/03/21 06:19:04;;;;;;;26.70;15.80;;;;;;;10.83;95.26;100203.73;682463;1264;138848;-87
2023/03/21 06:34:17;;;;;;;23.10;14.30;;;;;;;11.03;95.30;100217.47;682063;1263;140392;-87
2023/03/21 06:49:20;;;;;;;22.90;12.80;;;;;;;11.06;95.65;100238.85;682249;1261;139050;-86
2023/03/21 07:04:23;;;;;;;25.00;15.10;;;;;;;11.08;94.79;100255.38;682090;1260;139878;-83
2023/03/21 07:19:27;;;;;;;144.90;56.20;;;;;;;10.97;94.48;100269.08;682232;1260;139087;-86
2023/03/21 07:34:32;;;;;;;74.40;34.30;;;;;;;11.17;94.03;100282.85;682239;1260;139444;-87
2023/03/21 07:49:38;;;;;;;110.10;41.40;;;;;;;11.54;92.46;100279.04;682184;1263;139184;-86
2023/03/21 08:04:42;;;;;;;105.70;44.70;;;;;;;11.94;90.38;100292.31;682082;1260;139214;-88
2023/03/21 08:19:46;;;;;;;15.50;9.70;;;;;;;12.39;87.13;100301.08;682206;1261;139634;-88
2023/03/21 08:34:49;;;;;;;12.70;7.30;;;;;;;13.07;85.57;100305.52;682133;1260;139136;-87
2023/03/21 08:49:52;;;;;;;14.70;7.50;;;;;;;14.40;81.33;100314.60;682335;1261;139004;-85
2023/03/21 09:04:57;;;;;;;20.50;11.40;;;;;;;13.75;78.07;100327.95;682168;1261;139640;-86
2023/03/21 09:20:10;;;;;;;11.90;7.00;;;;;;;14.58;75.95;100334.05;682480;1265;139642;-87
2023/03/21 09:35:15;;;;;;;16.30;8.00;;;;;;;14.76;73.10;100339.41;682292;1262;140249;-88
2023/03/21 09:50:37;;;;;;;23.30;14.50;;;;;;;14.58;69.72;100353.27;682303;1262;139187;-89
2023/03/21 10:05:43;;;;;;;13.90;5.70;;;;;;;14.47;67.96;100361.27;682176;1263;139383;-90
2023/03/21 10:20:50;;;;;;;8.90;4.80;;;;;;;15.06;64.63;100372.56;682225;1261;139947;-89
2023/03/21 10:36:01;;;;;;;9.30;4.70;;;;;;;15.96;63.76;100374.05;682274;1263;139177;-84
2023/03/21 10:51:07;;;;;;;10.90;5.90;;;;;;;15.63;60.85;100376.52;682334;1261;139116;-82
2023/03/21 11:06:25;;;;;;;15.20;8.30;;;;;;;15.31;60.25;100370.28;682302;1264;139834;-83
2023/03/21 11:21:35;;;;;;;8.50;5.10;;;;;;;15.77;58.32;100357.29;682290;1259;138629;-85
2023/03/21 11:36:38;;;;;;;10.80;6.20;;;;;;;17.42;56.44;100359.84;682318;1264;139030;-83
2023/03/21 11:52:03;;;;;;;9.10;5.80;;;;;;;18.69;57.08;100355.84;682145;1262;138377;-83
2023/03/21 12:07:06;;;;;;;15.20;8.60;;;;;;;18.30;54.97;100367.56;682356;1264;138185;-80
2023/03/21 12:22:29;;;;;;;15.90;8.50;;;;;;;18.12;53.78;100367.28;682309;1263;138999;-83
2023/03/21 12:37:32;;;;;;;13.30;6.40;;;;;;;18.74;53.25;100354.02;682365;1264;138471;-82
2023/03/21 12:52:40;;;;;;;9.00;5.10;;;;;;;19.38;53.73;100349.44;682194;1262;138560;-81
2023/03/21 13:07:59;;;;;;;35.10;20.90;;;;;;;19.03;52.49;100339.23;682514;1260;138138;-82
2023/03/21 13:23:07;;;;;;;12.30;6.30;;;;;;;18.62;52.56;100332.29;682264;1262;138732;-80
2023/03/21 13:38:23;;;;;;;17.80;9.20;;;;;;;19.03;51.84;100325.90;681998;1265;138480;-83
2023/03/21 13:53:38;;;;;;;13.20;7.00;;;;;;;19.80;50.12;100315.92;681947;1262;139532;-75
2023/03/21 14:08:47;;;;;;;8.60;4.90;;;;;;;25.53;46.81;100304.23;681805;1262;138435;-77
2023/03/21 14:23:56;;;;;;;6.70;3.50;;;;;;;24.45;42.97;100288.36;682032;1265;138416;-78
2023/03/21 14:39:02;;;;;;;5.90;4.10;;;;;;;25.23;43.67;100278.50;682024;1265;138224;-81
2023/03/21 14:54:05;;;;;;;8.90;5.40;;;;;;;20.66;45.32;100269.17;682338;1259;138354;-81
2023/03/21 15:09:15;;;;;;;7.70;5.40;;;;;;;20.55;47.39;100257.23;682023;1265;138172;-80
2023/03/21 15:24:30;;;;;;;9.90;6.10;;;;;;;21.33;47.56;100250.31;682136;1264;138096;-81
2023/03/21 15:39:35;;;;;;;12.30;9.10;;;;;;;19.54;48.17;100246.95;681876;1265;138140;-84
2023/03/21 15:54:54;;;;;;;10.20;6.60;;;;;;;20.33;47.89;100240.69;682076;1264;138436;-83
2023/03/21 16:10:03;;;;;;;33.20;17.60;;;;;;;19.70;47.53;100239.58;682170;1265;138664;-82
2023/03/21 16:25:07;;;;;;;;;;;;;;;19.75;48.63;100244.38;682357;1264;138775;-83
2023/03/21 16:40:17;;;;;;;48.30;21.10;;;;;;;18.75;48.61;100245.91;682236;1265;124692;-83
2023/03/21 16:55:21;;;;;;;52.10;31.80;;;;;;;17.12;50.25;100254.45;682080;1265;138555;-86
2023/03/21 17:10:28;;;;;;;65.10;36.80;;;;;;;15.94;52.16;100255.21;682075;1266;138728;-85
2023/03/21 17:25:31;;;;;;;82.70;39.90;;;;;;;15.04;53.54;100268.34;682219;1260;138783;-83
2023/03/21 17:40:35;;;;;;;1328.90;638.50;;;;;;;14.10;54.61;100272.77;682090;1266;138860;-84
2023/03/21 17:55:39;;;;;;;240.10;110.50;;;;;;;13.49;56.18;100274.08;682120;1266;139333;-83
2023/03/21 18:10:52;;;;;;;80.30;40.40;;;;;;;13.02;57.65;100276.92;682177;1272;139326;-83
2023/03/21 18:25:56;;;;;;;84.00;35.00;;;;;;;12.48;58.40;100281.67;682182;1265;138395;-83
2023/03/21 18:41:00;;;;;;;64.80;29.70;;;;;;;11.98;59.43;100285.69;682157;1263;138642;-84
2023/03/21 18:56:04;;;;;;;98.30;43.30;;;;;;;11.54;60.24;100289.34;682293;1266;138392;-83
2023/03/21 19:11:12;;;;;;;129.40;50.70;;;;;;;11.11;61.61;100287.98;682133;1265;139045;-83
2023/03/21 19:26:16;;;;;;;107.60;43.10;;;;;;;10.77;61.85;100290.80;682449;1266;139705;-83
2023/03/21 19:41:20;;;;;;;135.50;57.60;;;;;;;10.52;62.58;100289.19;682203;1265;139825;-82
2023/03/21 19:56:24;;;;;;;192.70;74.90;;;;;;;10.26;63.16;100295.59;682150;1266;139232;-86
2023/03/21 20:11:30;;;;;;;153.50;64.20;;;;;;;9.83;63.48;100305.69;682016;1266;139683;-83
2023/03/21 20:26:36;;;;;;;66.10;32.70;;;;;;;9.49;64.03;100314.66;682301;1265;139162;-84
2023/03/21 20:41:39;;;;;;;81.00;36.00;;;;;;;9.27;64.67;100306.63;682162;1261;138902;-82
2023/03/21 20:56:43;;;;;;;122.20;49.10;;;;;;;9.06;64.53;100300.16;682036;1266;139030;-82
2023/03/21 21:11:48;;;;;;;95.50;41.60;;;;;;;8.83;64.82;100289.10;682296;1263;139752;-84
2023/03/21 21:27:08;;;;;;;84.50;40.30;;;;;;;8.58;64.95;100277.69;682126;1265;139270;-84
2023/03/21 21:42:11;;;;;;;68.60;32.30;;;;;;;8.37;65.12;100281.20;682136;1264;138862;-83
2023/03/21 21:57:18;;;;;;;125.40;52.60;;;;;;;8.10;65.62;100269.90;682018;1266;139244;-84
2023/03/21 22:12:21;;;;;;;179.40;68.60;;;;;;;8.01;66.12;100274.58;682344;1265;139424;-84
2023/03/21 22:27:25;;;;;;;324.90;114.50;;;;;;;7.77;65.95;100268.05;682155;1264;139361;-87
2023/03/21 22:42:28;;;;;;;431.00;163.10;;;;;;;7.56;66.18;100259.73;682126;1264;139384;-85
2023/03/21 22:57:31;;;;;;;427.00;159.20;;;;;;;7.39;66.48;100251.80;682202;1260;139612;-82
2023/03/21 23:12:36;;;;;;;404.30;151.90;;;;;;;7.32;66.64;100244.29;682310;1265;139669;-83
2023/03/21 23:27:39;;;;;;;392.40;147.50;;;;;;;7.25;66.76;100240.45;682003;1267;140009;-85
2023/03/21 23:42:42;;;;;;;383.30;140.50;;;;;;;7.22;67.13;100231.15;682201;1260;139668;-84
2023/03/21 23:57:46;;;;;;;347.90;132.10;;;;;;;7.32;67.93;100218.17;682174;1264;139293;-85
